createdAt,value
2022-12-13T00:00:52.805Z,1.80
2022-12-13T00:03:24.698Z,1.70
2022-12-13T00:05:56.496Z,1.80
2022-12-13T00:08:29.454Z,1.90
2022-12-13T00:11:02.883Z,1.90
2022-12-13T00:13:36.333Z,1.80
2022-12-13T00:16:12.402Z,1.80
2022-12-13T00:18:47.409Z,1.80
2022-12-13T00:21:24.637Z,1.80
2022-12-13T00:23:57.340Z,1.80
2022-12-13T00:26:31.707Z,1.80
2022-12-13T00:29:06.800Z,1.80
2022-12-13T00:31:59.991Z,1.90
2022-12-13T00:34:30.858Z,1.80
2022-12-13T00:37:02.961Z,1.90
2022-12-13T00:39:34.872Z,1.80
2022-12-13T00:42:07.103Z,1.80
2022-12-13T00:44:39.003Z,1.90
2022-12-13T00:47:10.915Z,2.00
2022-12-13T00:49:42.849Z,2.10
2022-12-13T00:52:14.857Z,2.20
2022-12-13T00:54:46.769Z,2.20
2022-12-13T00:57:18.711Z,2.10
2022-12-13T00:59:50.935Z,2.10
2022-12-13T01:02:22.797Z,2.00
2022-12-13T01:04:54.842Z,1.90
2022-12-13T01:07:26.869Z,1.80
2022-12-13T01:09:59.094Z,1.70
2022-12-13T01:12:33.947Z,1.70
2022-12-13T01:15:06.857Z,1.70
2022-12-13T01:17:38.862Z,1.70
2022-12-13T01:20:11.457Z,1.60
2022-12-13T01:22:43.385Z,1.60
2022-12-13T01:25:15.755Z,1.60
2022-12-13T01:27:47.800Z,1.70
2022-12-13T01:30:19.804Z,1.70
2022-12-13T01:32:51.826Z,1.70
2022-12-13T01:35:23.689Z,1.70
2022-12-13T01:37:55.786Z,1.70
2022-12-13T01:40:30.275Z,1.70
2022-12-13T01:43:02.643Z,1.80
2022-12-13T01:45:46.585Z,1.70
2022-12-13T01:48:24.777Z,1.80
2022-12-13T01:51:02.395Z,1.80
2022-12-13T01:53:38.370Z,1.80
2022-12-13T01:56:18.306Z,1.80
2022-12-13T01:58:54.517Z,1.90
2022-12-13T02:01:29.051Z,2.00
2022-12-13T02:04:01.051Z,2.00
2022-12-13T02:06:44.184Z,2.10
2022-12-13T02:09:17.071Z,2.10
2022-12-13T02:11:51.720Z,2.20
2022-12-13T02:14:23.625Z,2.30
2022-12-13T02:17:22.949Z,2.40
2022-12-13T02:20:03.857Z,2.50
2022-12-13T02:23:13.177Z,2.50
2022-12-13T02:25:57.806Z,2.40
2022-12-13T02:28:35.378Z,2.20
2022-12-13T02:31:17.452Z,2.20
2022-12-13T02:34:02.210Z,2.20
2022-12-13T02:36:58.790Z,2.00
2022-12-13T02:39:39.405Z,1.90
2022-12-13T02:42:24.194Z,1.80
2022-12-13T02:45:02.746Z,1.70
2022-12-13T02:47:38.741Z,1.80
2022-12-13T02:50:13.956Z,1.90
2022-12-13T02:52:46.721Z,2.00
2022-12-13T02:55:18.842Z,1.90
2022-12-13T02:57:51.313Z,1.80
2022-12-13T03:00:44.619Z,1.80
2022-12-13T03:03:26.706Z,1.90
2022-12-13T03:06:40.858Z,1.90
2022-12-13T03:09:30.510Z,1.80
2022-12-13T03:12:45.897Z,1.80
2022-12-13T03:15:35.740Z,1.90
2022-12-13T03:18:17.170Z,2.00
2022-12-13T03:20:51.279Z,1.90
2022-12-13T03:23:24.420Z,1.90
2022-12-13T03:26:18.416Z,1.90
2022-12-13T03:28:51.437Z,1.90
2022-12-13T03:31:23.418Z,1.90
2022-12-13T03:33:56.731Z,1.90
2022-12-13T03:36:28.720Z,1.90
2022-12-13T03:39:00.710Z,1.90
2022-12-13T03:41:33.889Z,1.90
2022-12-13T03:44:08.638Z,2.00
2022-12-13T03:46:40.668Z,2.00
2022-12-13T03:49:17.135Z,2.20
2022-12-13T03:51:49.613Z,2.20
2022-12-13T03:54:22.055Z,2.20
2022-12-13T03:56:53.966Z,2.30
2022-12-13T03:59:25.952Z,2.30
2022-12-13T04:02:01.972Z,2.30
2022-12-13T04:04:35.197Z,2.30
2022-12-13T04:07:21.865Z,2.30
2022-12-13T04:10:26.033Z,2.30
2022-12-13T04:13:17.725Z,2.20
2022-12-13T04:15:49.694Z,2.00
2022-12-13T04:18:24.230Z,2.00
2022-12-13T04:21:08.981Z,2.10
2022-12-13T04:23:40.899Z,2.10
2022-12-13T04:26:14.176Z,2.10
2022-12-13T04:28:50.856Z,2.10
2022-12-13T04:31:26.197Z,2.10
2022-12-13T04:33:58.175Z,2.10
2022-12-13T04:36:31.795Z,2.00
2022-12-13T04:39:22.481Z,2.10
2022-12-13T04:41:54.891Z,2.10
2022-12-13T04:44:28.729Z,2.30
2022-12-13T04:47:02.823Z,2.30
2022-12-13T04:49:35.281Z,2.30
2022-12-13T04:52:07.207Z,2.20
2022-12-13T04:54:39.168Z,2.00
2022-12-13T04:57:11.963Z,2.10
2022-12-13T04:59:46.986Z,2.10
2022-12-13T05:02:24.178Z,2.10
2022-12-13T05:04:56.464Z,2.10
2022-12-13T05:07:28.580Z,2.10
2022-12-13T05:10:00.431Z,2.10
2022-12-13T05:12:32.336Z,2.30
2022-12-13T05:15:05.017Z,2.40
2022-12-13T05:17:36.959Z,2.30
2022-12-13T05:20:10.074Z,2.20
2022-12-13T05:22:42.269Z,2.10
2022-12-13T05:25:14.413Z,2.10
2022-12-13T05:27:46.570Z,2.10
2022-12-13T05:30:20.466Z,2.20
2022-12-13T05:32:52.488Z,2.20
2022-12-13T05:35:24.810Z,2.30
2022-12-13T05:37:56.902Z,2.30
2022-12-13T05:40:31.206Z,2.30
2022-12-13T05:43:03.195Z,2.20
2022-12-13T05:45:35.089Z,2.20
2022-12-13T05:48:07.077Z,2.30
2022-12-13T05:50:39.034Z,2.30
2022-12-13T05:53:12.673Z,2.30
2022-12-13T05:55:44.968Z,2.30
2022-12-13T05:58:23.142Z,2.40
2022-12-13T06:00:55.464Z,2.40
2022-12-13T06:03:28.513Z,2.40
2022-12-13T06:06:06.016Z,2.40
2022-12-13T06:08:38.410Z,2.40
2022-12-13T06:11:12.263Z,2.40
2022-12-13T06:13:44.867Z,2.30
2022-12-13T06:16:22.987Z,2.30
2022-12-13T06:19:03.687Z,2.30
2022-12-13T06:21:41.694Z,2.40
2022-12-13T06:24:20.869Z,2.40
2022-12-13T06:26:52.808Z,2.40
2022-12-13T06:29:25.719Z,2.40
2022-12-13T06:32:02.135Z,2.40
2022-12-13T06:34:36.610Z,2.50
2022-12-13T06:37:12.313Z,2.50
2022-12-13T06:39:45.369Z,2.50
2022-12-13T06:42:21.351Z,2.50
2022-12-13T06:44:55.687Z,2.40
2022-12-13T06:47:31.136Z,2.40
2022-12-13T06:50:06.010Z,2.60
2022-12-13T06:52:38.558Z,2.70
2022-12-13T06:55:10.947Z,2.70
2022-12-13T06:57:43.937Z,2.70
2022-12-13T07:00:22.528Z,2.60
2022-12-13T07:02:55.628Z,2.60
2022-12-13T07:05:27.640Z,2.50
2022-12-13T07:07:59.623Z,2.50
2022-12-13T07:10:32.906Z,2.60
2022-12-13T07:13:04.756Z,2.60
2022-12-13T07:15:36.779Z,2.60
2022-12-13T07:18:08.745Z,2.60
2022-12-13T07:20:41.666Z,2.70
2022-12-13T07:23:14.118Z,2.60
2022-12-13T07:25:53.750Z,2.60
2022-12-13T07:28:25.632Z,2.70
2022-12-13T07:31:02.008Z,2.60
2022-12-13T07:33:34.069Z,2.60
2022-12-13T07:36:09.123Z,2.70
2022-12-13T07:38:41.330Z,2.70
2022-12-13T07:41:13.258Z,2.80
2022-12-13T07:43:56.333Z,2.70
2022-12-13T07:46:32.159Z,2.60
2022-12-13T07:49:05.926Z,2.70
2022-12-13T07:51:38.741Z,2.70
2022-12-13T07:54:10.637Z,2.70
2022-12-13T07:56:42.598Z,2.80
2022-12-13T07:59:14.624Z,2.80
2022-12-13T08:01:47.265Z,2.90
2022-12-13T08:04:20.213Z,2.90
2022-12-13T08:06:53.249Z,3.00
2022-12-13T08:09:25.243Z,3.00
2022-12-13T08:11:58.560Z,3.00
2022-12-13T08:14:33.535Z,3.00
2022-12-13T08:17:05.507Z,3.10
2022-12-13T08:19:37.440Z,3.10
2022-12-13T08:22:14.218Z,3.20
2022-12-13T08:24:46.312Z,3.30
2022-12-13T08:27:18.380Z,3.40
2022-12-13T08:29:50.285Z,3.30
2022-12-13T08:32:22.294Z,3.40
2022-12-13T08:34:54.216Z,3.50
2022-12-13T08:37:26.134Z,3.40
2022-12-13T08:39:58.061Z,3.50
2022-12-13T08:42:30.017Z,3.50
2022-12-13T08:45:01.917Z,3.50
2022-12-13T08:47:39.828Z,3.40
2022-12-13T08:50:13.433Z,3.40
2022-12-13T08:52:45.450Z,3.50
2022-12-13T08:55:19.080Z,3.40
2022-12-13T08:57:54.303Z,3.40
2022-12-13T09:00:26.203Z,3.30
2022-12-13T09:02:58.106Z,3.40
2022-12-13T09:05:33.720Z,3.40
2022-12-13T09:08:24.556Z,3.40
2022-12-13T09:11:11.217Z,3.50
2022-12-13T09:13:54.078Z,3.50
2022-12-13T09:16:36.514Z,3.50
2022-12-13T09:19:26.333Z,3.50
2022-12-13T09:22:02.756Z,3.50
2022-12-13T09:24:35.755Z,3.60
2022-12-13T09:27:10.437Z,3.70
2022-12-13T09:29:59.414Z,3.80
2022-12-13T09:32:32.127Z,3.80
2022-12-13T09:35:04.304Z,3.70
2022-12-13T09:37:39.838Z,3.80
2022-12-13T09:40:26.155Z,3.80
2022-12-13T09:43:12.304Z,3.90
2022-12-13T09:45:47.982Z,3.80
2022-12-13T09:48:22.368Z,3.80
2022-12-13T09:51:16.040Z,3.80
2022-12-13T09:53:51.076Z,3.70
2022-12-13T09:56:24.495Z,3.70
2022-12-13T09:58:57.260Z,3.80
2022-12-13T10:01:29.217Z,3.80
2022-12-13T10:04:01.624Z,4.00
2022-12-13T10:06:34.729Z,4.10
2022-12-13T10:09:11.165Z,4.20
2022-12-13T10:11:51.832Z,4.20
2022-12-13T10:14:31.464Z,4.00
2022-12-13T10:17:08.500Z,4.00
2022-12-13T10:19:44.114Z,4.00
2022-12-13T10:22:18.175Z,4.00
2022-12-13T10:25:04.599Z,3.80
2022-12-13T10:27:40.500Z,3.80
2022-12-13T10:30:17.611Z,3.80
2022-12-13T10:32:58.075Z,3.80
2022-12-13T10:35:37.271Z,3.70
2022-12-13T10:38:10.271Z,3.70
2022-12-13T10:40:48.409Z,3.80
2022-12-13T10:43:22.358Z,3.90
2022-12-13T10:46:00.650Z,3.90
2022-12-13T10:48:40.137Z,4.00
2022-12-13T10:51:20.096Z,4.00
2022-12-13T10:54:01.176Z,4.00
2022-12-13T10:56:41.998Z,4.00
2022-12-13T10:59:32.136Z,4.00
2022-12-13T11:02:27.977Z,4.10
2022-12-13T11:05:23.128Z,3.90
2022-12-13T11:08:11.562Z,4.00
2022-12-13T11:10:44.051Z,3.80
2022-12-13T11:13:29.315Z,3.80
2022-12-13T11:16:02.058Z,3.80
2022-12-13T11:18:37.303Z,3.80
2022-12-13T11:21:09.839Z,3.80
2022-12-13T11:23:45.704Z,3.90
2022-12-13T11:26:24.455Z,4.00
2022-12-13T11:29:15.347Z,4.00
2022-12-13T11:32:05.682Z,4.00
2022-12-13T11:34:55.429Z,4.00
2022-12-13T11:37:57.304Z,4.10
2022-12-13T11:40:31.636Z,4.00
2022-12-13T11:43:23.371Z,4.00
2022-12-13T11:46:00.214Z,4.00
2022-12-13T11:48:49.471Z,4.10
2022-12-13T11:51:43.646Z,4.20
2022-12-13T11:54:41.890Z,4.10
2022-12-13T11:57:35.618Z,4.30
2022-12-13T12:00:34.840Z,4.20
2022-12-13T12:03:22.841Z,4.20
2022-12-13T12:06:00.726Z,4.30
2022-12-13T12:08:38.381Z,4.40
2022-12-13T12:11:56.786Z,4.30
2022-12-13T12:14:54.144Z,4.40
2022-12-13T12:17:26.419Z,4.40
2022-12-13T12:19:59.245Z,4.40
2022-12-13T12:22:31.079Z,4.30
2022-12-13T12:25:33.737Z,4.30
2022-12-13T12:28:20.747Z,4.30
2022-12-13T12:31:16.128Z,4.30
2022-12-13T12:34:33.883Z,4.50
2022-12-13T12:37:49.307Z,4.50
2022-12-13T12:41:15.116Z,4.40
2022-12-13T12:43:43.535Z,4.50
2022-12-13T12:47:18.159Z,4.50
2022-12-13T12:50:09.197Z,4.40
2022-12-13T12:53:08.361Z,4.60
2022-12-13T12:56:03.712Z,4.60
2022-12-13T12:58:38.425Z,4.70
2022-12-13T13:01:23.233Z,4.80
2022-12-13T13:04:02.040Z,4.80
2022-12-13T13:06:41.460Z,4.80
2022-12-13T13:09:17.878Z,4.90
2022-12-13T13:11:57.669Z,4.80
2022-12-13T13:14:37.354Z,4.70
2022-12-13T13:17:24.125Z,4.80
2022-12-13T13:20:21.042Z,4.80
2022-12-13T13:23:39.136Z,4.80
2022-12-13T13:26:15.803Z,4.90
2022-12-13T13:28:47.304Z,4.80
2022-12-13T13:31:19.366Z,4.90
2022-12-13T13:33:52.376Z,4.80
2022-12-13T13:36:41.760Z,4.80
2022-12-13T13:39:36.627Z,4.80
2022-12-13T13:42:15.735Z,4.80
2022-12-13T13:44:50.505Z,4.70
2022-12-13T13:47:22.403Z,4.50
2022-12-13T13:50:21.430Z,4.30
2022-12-13T13:53:08.420Z,4.30
2022-12-13T13:56:00.165Z,4.30
2022-12-13T13:58:36.373Z,4.30
2022-12-13T14:01:08.728Z,4.40
2022-12-13T14:04:14.950Z,4.40
2022-12-13T14:07:02.264Z,4.40
2022-12-13T14:09:40.086Z,4.30
2022-12-13T14:12:45.500Z,4.30
2022-12-13T14:15:39.191Z,4.40
2022-12-13T14:18:35.483Z,4.40
2022-12-13T14:21:19.397Z,4.40
2022-12-13T14:24:07.169Z,4.40
2022-12-13T14:26:56.923Z,4.50
2022-12-13T14:29:37.454Z,4.50
2022-12-13T14:32:26.097Z,4.60
2022-12-13T14:35:25.338Z,4.60
2022-12-13T14:37:57.897Z,4.70
2022-12-13T14:40:35.536Z,4.70
2022-12-13T14:43:25.683Z,4.60
2022-12-13T14:46:03.983Z,4.60
2022-12-13T14:48:44.869Z,4.50
2022-12-13T14:51:34.461Z,4.50
2022-12-13T14:54:08.009Z,4.50
2022-12-13T14:57:01.511Z,4.40
2022-12-13T14:59:33.781Z,4.50
2022-12-13T15:02:05.975Z,4.40
2022-12-13T15:04:38.067Z,4.40
2022-12-13T15:07:31.274Z,4.30
2022-12-13T15:10:20.278Z,4.30
2022-12-13T15:12:54.401Z,4.40
2022-12-13T15:15:31.354Z,4.50
2022-12-13T15:18:11.267Z,4.40
2022-12-13T15:21:03.847Z,4.40
2022-12-13T15:23:49.079Z,4.40
2022-12-13T15:26:28.776Z,4.40
2022-12-13T15:29:09.454Z,4.30
2022-12-13T15:31:42.823Z,4.30
2022-12-13T15:34:39.681Z,4.40
2022-12-13T15:37:29.170Z,4.40
2022-12-13T15:40:08.153Z,4.50
2022-12-13T15:42:46.900Z,4.40
2022-12-13T15:45:24.831Z,4.40
2022-12-13T15:47:59.104Z,4.40
2022-12-13T15:50:43.813Z,4.40
2022-12-13T15:53:25.328Z,4.30
2022-12-13T15:55:57.622Z,4.20
2022-12-13T15:58:35.797Z,4.20
2022-12-13T16:01:31.473Z,4.20
2022-12-13T16:04:05.063Z,4.20
2022-12-13T16:06:37.062Z,4.30
2022-12-13T16:09:18.724Z,4.30
2022-12-13T16:11:55.989Z,4.30
2022-12-13T16:14:31.493Z,4.20
2022-12-13T16:17:18.288Z,4.30
2022-12-13T16:19:54.580Z,4.30
2022-12-13T16:22:26.620Z,4.30
2022-12-13T16:24:59.565Z,4.30
2022-12-13T16:27:31.513Z,4.30
2022-12-13T16:30:12.414Z,4.20
2022-12-13T16:33:10.800Z,4.10
2022-12-13T16:35:36.798Z,4.10
2022-12-13T16:38:25.864Z,4.10
2022-12-13T16:41:08.289Z,4.10
2022-12-13T16:43:58.060Z,4.10
2022-12-13T16:47:12.608Z,4.20
2022-12-13T16:49:25.986Z,4.20
2022-12-13T16:51:58.324Z,4.20
2022-12-13T16:54:30.181Z,4.20
2022-12-13T16:57:02.174Z,4.20
2022-12-13T16:59:34.429Z,4.20
2022-12-13T17:02:06.383Z,4.20
2022-12-13T17:04:41.680Z,4.20
2022-12-13T17:07:13.705Z,4.10
2022-12-13T17:09:45.684Z,4.20
2022-12-13T17:12:17.548Z,4.10
2022-12-13T17:14:49.563Z,4.10
2022-12-13T17:17:21.659Z,4.10
2022-12-13T17:19:54.003Z,4.20
2022-12-13T17:22:25.939Z,4.20
2022-12-13T17:24:58.105Z,4.20
2022-12-13T17:27:31.203Z,4.20
2022-12-13T17:30:04.086Z,4.20
2022-12-13T17:32:36.393Z,4.20
2022-12-13T17:35:16.291Z,4.20
2022-12-13T17:37:49.859Z,4.20
2022-12-13T17:40:21.865Z,4.20
2022-12-13T17:42:53.739Z,4.20
2022-12-13T17:45:25.548Z,4.30
2022-12-13T17:47:59.090Z,4.20
2022-12-13T17:50:31.204Z,4.20
2022-12-13T17:53:06.469Z,4.20
2022-12-13T17:55:39.989Z,4.10
2022-12-13T17:58:11.994Z,3.90
2022-12-13T18:00:43.885Z,3.90
2022-12-13T18:03:20.660Z,3.80
2022-12-13T18:05:59.514Z,3.70
2022-12-13T18:08:35.876Z,3.70
2022-12-13T18:11:31.860Z,3.70
2022-12-13T18:14:05.638Z,3.70
2022-12-13T18:16:39.614Z,3.80
2022-12-13T18:19:12.929Z,3.70
2022-12-13T18:21:45.024Z,3.80
2022-12-13T18:24:19.419Z,3.90
2022-12-13T18:26:51.655Z,4.00
2022-12-13T18:29:23.596Z,4.00
2022-12-13T18:31:55.639Z,4.00
2022-12-13T18:34:28.366Z,3.90
2022-12-13T18:37:00.193Z,3.90
2022-12-13T18:39:32.050Z,3.90
2022-12-13T18:42:04.507Z,4.00
2022-12-13T18:44:36.512Z,4.10
2022-12-13T18:47:08.921Z,4.00
2022-12-13T18:49:40.825Z,3.90
2022-12-13T18:52:12.732Z,4.00
2022-12-13T18:54:47.509Z,4.10
2022-12-13T18:57:26.689Z,4.10
2022-12-13T18:59:58.648Z,4.10
2022-12-13T19:02:34.389Z,4.10
2022-12-13T19:05:07.034Z,4.10
2022-12-13T19:07:39.003Z,4.00
2022-12-13T19:10:12.297Z,4.00
2022-12-13T19:12:44.286Z,3.90
2022-12-13T19:15:17.012Z,3.90
2022-12-13T19:17:48.941Z,3.80
2022-12-13T19:20:21.332Z,3.90
2022-12-13T19:22:53.736Z,3.70
2022-12-13T19:25:25.626Z,3.70
2022-12-13T19:27:57.564Z,3.70
2022-12-13T19:30:29.437Z,3.70
2022-12-13T19:33:01.672Z,3.80
2022-12-13T19:35:33.819Z,3.90
2022-12-13T19:38:05.705Z,3.90
2022-12-13T19:40:42.450Z,3.90
2022-12-13T19:43:15.397Z,4.00
2022-12-13T19:45:47.742Z,4.00
2022-12-13T19:48:19.736Z,3.90
2022-12-13T19:50:51.596Z,3.80
2022-12-13T19:53:23.723Z,3.80
2022-12-13T19:55:56.056Z,3.80
2022-12-13T19:58:28.655Z,3.70
2022-12-13T20:01:04.571Z,3.70
2022-12-13T20:03:45.560Z,3.80
2022-12-13T20:06:20.603Z,3.90
2022-12-13T20:08:53.085Z,3.90
2022-12-13T20:11:24.946Z,3.90
2022-12-13T20:13:56.982Z,3.90
2022-12-13T20:16:28.970Z,3.80
2022-12-13T20:19:01.741Z,3.90
2022-12-13T20:21:33.701Z,3.80
2022-12-13T20:24:06.044Z,3.80
2022-12-13T20:26:38.872Z,3.80
2022-12-13T20:29:11.236Z,3.80
2022-12-13T20:31:48.659Z,3.80
2022-12-13T20:34:21.060Z,3.80
2022-12-13T20:36:52.957Z,3.80
2022-12-13T20:39:24.889Z,3.70
2022-12-13T20:41:56.855Z,3.70
2022-12-13T20:44:28.749Z,3.80
2022-12-13T20:47:00.855Z,3.80
2022-12-13T20:49:32.902Z,3.80
2022-12-13T20:52:04.930Z,3.80
2022-12-13T20:54:36.904Z,3.90
2022-12-13T20:57:09.107Z,3.90
2022-12-13T20:59:42.151Z,4.00
2022-12-13T21:02:14.248Z,4.00
2022-12-13T21:04:46.220Z,4.00
2022-12-13T21:07:38.571Z,3.90
2022-12-13T21:10:13.621Z,3.90
2022-12-13T21:12:45.873Z,3.90
2022-12-13T21:15:18.002Z,3.90
2022-12-13T21:17:50.011Z,3.90
2022-12-13T21:20:22.271Z,3.90
2022-12-13T21:22:54.389Z,3.90
2022-12-13T21:25:26.348Z,4.00
2022-12-13T21:27:58.278Z,4.00
2022-12-13T21:30:30.152Z,4.10
2022-12-13T21:33:01.935Z,4.20
2022-12-13T21:35:33.785Z,4.20
2022-12-13T21:38:05.776Z,4.20
2022-12-13T21:40:46.300Z,4.20
2022-12-13T21:43:36.835Z,4.20
2022-12-13T21:46:11.854Z,4.30
2022-12-13T21:48:44.662Z,4.20
2022-12-13T21:51:21.357Z,4.20
2022-12-13T21:53:54.098Z,4.20
2022-12-13T21:56:52.599Z,4.20
2022-12-13T21:59:26.737Z,4.20
2022-12-13T22:02:12.145Z,4.10
2022-12-13T22:04:55.814Z,4.20
2022-12-13T22:07:27.667Z,4.20
2022-12-13T22:10:01.482Z,4.10
2022-12-13T22:12:47.794Z,3.90
2022-12-13T22:15:19.827Z,3.90
2022-12-13T22:17:51.793Z,3.90
2022-12-13T22:20:23.734Z,3.90
2022-12-13T22:22:56.191Z,4.00
2022-12-13T22:25:28.145Z,3.90
2022-12-13T22:28:19.101Z,3.90
2022-12-13T22:30:54.071Z,3.80
2022-12-13T22:33:26.027Z,3.80
2022-12-13T22:36:01.130Z,3.80
2022-12-13T22:38:33.357Z,3.70
2022-12-13T22:41:06.288Z,3.70
2022-12-13T22:43:38.289Z,3.70
2022-12-13T22:46:15.910Z,3.80
2022-12-13T22:48:47.962Z,3.80
2022-12-13T22:51:20.372Z,3.80
2022-12-13T22:53:52.386Z,3.70
2022-12-13T22:56:24.437Z,3.70
2022-12-13T22:58:58.521Z,3.70
2022-12-13T23:01:32.913Z,3.70
2022-12-13T23:04:06.708Z,3.70
2022-12-13T23:06:40.249Z,3.70
2022-12-13T23:09:14.083Z,3.80
2022-12-13T23:12:04.649Z,3.80
2022-12-13T23:14:36.540Z,3.90
2022-12-13T23:17:08.604Z,3.90
2022-12-13T23:19:50.009Z,3.90
2022-12-13T23:22:26.400Z,3.90
2022-12-13T23:24:58.312Z,3.90
2022-12-13T23:27:30.274Z,3.90
2022-12-13T23:30:02.832Z,3.90
2022-12-13T23:32:34.785Z,3.90
2022-12-13T23:35:09.157Z,3.90
2022-12-13T23:37:41.077Z,3.90
2022-12-13T23:40:13.045Z,4.00
2022-12-13T23:42:45.867Z,4.20
2022-12-13T23:45:17.744Z,4.20
2022-12-13T23:47:49.655Z,4.20
2022-12-13T23:50:21.469Z,4.20
2022-12-13T23:52:53.424Z,4.20
2022-12-13T23:55:25.280Z,4.20
2022-12-13T23:57:57.217Z,4.10
